Time;durP1;ratioP1;P1;durP2;ratioP2;P2;SDS_P1;SDS_P2;PMS_P1;PMS_P2;Temp;Humidity;BMP_temperature;BMP_pressure;BME280_temperature;BME280_humidity;BME280_pressure;Samples;Min_cycle;Max_cycle;Signal;HPM_P1;HPM_P2
2023/01/25 00:01:30;;;;;;;19.05;12.70;;;3.80;99.90;;;;;;5024576;28;20212;-74
2023/01/25 00:06:48;;;;;;;23.52;14.88;;;3.80;99.90;;;;;;4989128;28;20223;-75
2023/01/25 00:09:34;;;;;;;22.20;14.98;;;3.80;99.90;;;;;;4982769;28;20211;-74
2023/01/25 00:12:20;;;;;;;21.25;15.13;;;3.80;99.90;;;;;;4988950;28;20358;-73
2023/01/25 00:15:08;;;;;;;24.45;15.02;;;3.70;99.90;;;;;;4991650;28;20230;-74
2023/01/25 00:17:54;;;;;;;21.60;15.18;;;3.60;99.90;;;;;;4988974;28;20323;-74
2023/01/25 00:20:40;;;;;;;21.60;14.98;;;3.60;99.90;;;;;;4982651;28;20223;-73
2023/01/25 00:23:25;;;;;;;20.35;14.63;;;3.50;99.90;;;;;;4989042;28;20691;-74
2023/01/25 00:26:11;;;;;;;18.08;12.52;;;3.50;99.90;;;;;;4989563;28;20281;-74
2023/01/25 00:28:58;;;;;;;20.88;13.50;;;3.50;99.90;;;;;;4987573;28;20337;-74
2023/01/25 00:31:54;;;;;;;17.58;12.68;;;3.50;99.90;;;;;;4990113;28;20219;-74
2023/01/25 00:34:49;;;;;;;17.75;12.15;;;3.60;99.90;;;;;;4992302;28;20222;-74
2023/01/25 00:37:38;;;;;;;16.30;11.40;;;3.60;99.90;;;;;;4986414;28;20420;-73
2023/01/25 00:40:24;;;;;;;15.95;11.48;;;3.60;99.90;;;;;;4985154;28;20206;-73
2023/01/25 00:43:10;;;;;;;14.32;10.73;;;3.60;99.90;;;;;;4989254;28;20202;-74
2023/01/25 00:46:01;;;;;;;11.52;8.93;;;3.60;99.90;;;;;;4987495;28;20239;-74
2023/01/25 00:48:48;;;;;;;14.90;10.10;;;3.70;99.90;;;;;;4987895;28;20330;-74
2023/01/25 00:51:34;;;;;;;15.10;11.80;;;3.70;99.90;;;;;;4987918;28;20207;-73
2023/01/25 00:54:20;;;;;;;16.30;11.85;;;3.70;99.90;;;;;;4988995;28;20715;-73
2023/01/25 00:57:06;;;;;;;15.60;11.20;;;3.60;99.90;;;;;;4991283;28;20676;-74
2023/01/25 00:59:51;;;;;;;18.25;11.88;;;3.50;99.90;;;;;;4982114;28;20214;-75
2023/01/25 01:02:37;;;;;;;18.27;11.30;;;3.60;99.90;;;;;;4987086;28;20211;-73
2023/01/25 01:05:26;;;;;;;17.92;12.15;;;3.60;99.90;;;;;;4994211;28;20231;-73
2023/01/25 01:08:12;;;;;;;17.00;11.35;;;3.50;99.90;;;;;;4981709;28;20295;-76
2023/01/25 01:11:01;;;;;;;18.88;12.23;;;3.60;99.90;;;;;;4988611;28;20289;-74
2023/01/25 01:13:46;;;;;;;16.83;11.55;;;3.50;99.90;;;;;;4992751;28;20286;-73
2023/01/25 01:16:32;;;;;;;17.35;12.55;;;3.50;99.90;;;;;;4989125;28;20310;-75
2023/01/25 01:19:19;;;;;;;17.88;11.85;;;3.50;99.90;;;;;;4990676;28;20207;-74
2023/01/25 01:22:05;;;;;;;19.60;12.85;;;3.60;99.90;;;;;;4993806;28;20349;-73
2023/01/25 01:24:51;;;;;;;19.00;12.50;;;3.50;99.90;;;;;;4991775;28;20231;-73
2023/01/25 01:27:37;;;;;;;18.65;12.77;;;3.60;99.90;;;;;;4994634;28;20222;-74
2023/01/25 01:30:23;;;;;;;20.13;13.07;;;3.60;99.90;;;;;;4989296;28;20214;-73
2023/01/25 01:33:08;;;;;;;19.10;13.50;;;3.50;99.90;;;;;;4999997;28;20320;-73
2023/01/25 01:35:54;;;;;;;19.38;13.32;;;3.60;99.90;;;;;;4991338;28;20235;-74
2023/01/25 01:38:41;;;;;;;21.05;13.30;;;3.60;99.90;;;;;;4991215;28;20210;-74
2023/01/25 01:41:27;;;;;;;23.45;14.57;;;3.50;99.90;;;;;;4985864;28;20280;-72
2023/01/25 01:44:19;;;;;;;24.88;13.57;;;3.60;99.90;;;;;;4992989;28;20302;-75
2023/01/25 01:47:04;;;;;;;26.92;13.50;;;3.60;99.90;;;;;;4996520;28;20231;-73
2023/01/25 01:49:54;;;;;;;16.42;11.93;;;3.60;99.90;;;;;;4982522;28;20338;-73
2023/01/25 01:52:39;;;;;;;18.70;11.93;;;3.60;99.90;;;;;;4990869;28;20211;-75
2023/01/25 01:55:26;;;;;;;17.25;12.52;;;3.50;99.90;;;;;;4992059;28;20226;-73
2023/01/25 01:58:12;;;;;;;21.35;14.00;;;3.60;99.90;;;;;;4989888;28;20199;-74
2023/01/25 02:00:58;;;;;;;22.30;13.85;;;3.60;99.90;;;;;;4985730;28;20215;-74
2023/01/25 02:03:44;;;;;;;19.13;12.50;;;3.60;99.90;;;;;;4986713;28;20698;-73
2023/01/25 02:06:40;;;;;;;22.15;15.18;;;3.50;99.90;;;;;;4993496;28;20242;-73
2023/01/25 02:09:28;;;;;;;21.75;14.82;;;3.50;99.90;;;;;;4986713;28;20262;-73
2023/01/25 02:12:16;;;;;;;22.55;13.85;;;3.50;99.90;;;;;;4988072;28;20211;-73
2023/01/25 02:15:01;;;;;;;22.35;15.23;;;3.50;99.90;;;;;;4990141;28;20617;-73
2023/01/25 02:17:49;;;;;;;21.92;14.10;;;3.50;99.90;;;;;;4989776;28;20210;-76
2023/01/25 02:20:37;;;;;;;18.80;13.25;;;3.50;99.90;;;;;;4992551;28;20203;-74
2023/01/25 02:23:29;;;;;;;19.40;14.32;;;3.60;99.90;;;;;;4988317;28;20735;-73
2023/01/25 02:26:18;;;;;;;22.95;15.18;;;3.60;99.90;;;;;;4990478;28;20771;-74
2023/01/25 02:29:06;;;;;;;23.65;14.45;;;3.60;99.90;;;;;;4983080;28;20211;-73
2023/01/25 02:31:59;;;;;;;22.50;14.00;;;3.60;99.90;;;;;;4995411;28;20206;-73
2023/01/25 02:34:45;;;;;;;24.83;14.93;;;3.50;99.90;;;;;;4989907;28;20336;-74
2023/01/25 02:37:31;;;;;;;25.48;16.55;;;3.60;99.90;;;;;;4988530;28;20210;-75
2023/01/25 02:40:17;;;;;;;21.45;15.05;;;3.60;99.90;;;;;;4993034;28;20208;-73
2023/01/25 02:43:04;;;;;;;24.92;15.68;;;3.60;99.90;;;;;;4987343;28;20207;-73
2023/01/25 02:45:56;;;;;;;23.20;15.02;;;3.70;99.90;;;;;;4986418;28;20223;-74
2023/01/25 02:48:42;;;;;;;23.15;15.15;;;3.70;99.90;;;;;;4983205;28;20220;-74
2023/01/25 02:51:30;;;;;;;21.77;15.10;;;3.70;99.90;;;;;;4986529;28;20270;-75
2023/01/25 02:54:16;;;;;;;22.25;14.75;;;3.70;99.90;;;;;;5001563;28;20203;-74
2023/01/25 02:57:02;;;;;;;19.30;13.90;;;3.80;99.90;;;;;;4989315;28;20573;-73
2023/01/25 02:59:49;;;;;;;21.67;14.60;;;3.80;99.90;;;;;;4986260;28;20632;-73
2023/01/25 03:02:35;;;;;;;23.27;14.52;;;3.80;99.90;;;;;;4991771;28;20693;-73
2023/01/25 03:05:20;;;;;;;21.88;15.35;;;3.80;99.90;;;;;;4990783;28;20232;-73
2023/01/25 03:08:06;;;;;;;21.38;14.68;;;3.80;99.90;;;;;;4985833;28;20230;-73
2023/01/25 03:10:55;;;;;;;22.52;15.30;;;3.80;99.90;;;;;;4990083;28;20207;-74
2023/01/25 03:13:41;;;;;;;26.73;15.57;;;3.80;99.90;;;;;;4987877;28;20573;-73
2023/01/25 03:16:30;;;;;;;24.75;15.57;;;3.80;99.90;;;;;;4988487;28;20355;-74
2023/01/25 03:19:16;;;;;;;24.58;15.93;;;3.80;99.90;;;;;;4989233;28;20610;-73
2023/01/25 03:22:01;;;;;;;23.27;15.68;;;3.80;99.90;;;;;;4996941;28;20344;-74
2023/01/25 03:24:47;;;;;;;24.60;14.57;;;3.90;99.90;;;;;;5000009;28;20223;-74
2023/01/25 03:27:32;;;;;;;21.77;14.73;;;3.80;99.90;;;;;;4987570;28;20227;-75
2023/01/25 03:30:18;;;;;;;20.92;14.88;;;3.70;99.90;;;;;;4990376;28;20203;-73
2023/01/25 03:33:07;;;;;;;21.02;14.13;;;3.80;99.90;;;;;;4987036;28;20223;-74
2023/01/25 03:35:52;;;;;;;22.13;15.43;;;3.70;99.90;;;;;;4988827;28;20230;-73
2023/01/25 03:38:38;;;;;;;24.45;15.18;;;3.70;99.90;;;;;;4978925;28;20225;-73
2023/01/25 03:41:24;;;;;;;22.35;14.23;;;3.60;99.90;;;;;;4988180;28;20704;-73
2023/01/25 03:44:10;;;;;;;24.50;16.00;;;3.50;99.90;;;;;;4988250;28;20203;-73
2023/01/25 03:46:56;;;;;;;21.20;14.65;;;3.50;99.90;;;;;;4985603;28;20211;-73
2023/01/25 03:49:43;;;;;;;24.08;14.32;;;3.40;99.90;;;;;;4990547;28;20211;-74
2023/01/25 03:52:33;;;;;;;38.05;16.77;;;3.40;99.90;;;;;;4988349;28;20235;-73
2023/01/25 03:55:18;;;;;;;22.83;15.13;;;3.40;99.90;;;;;;4987209;28;20227;-74
2023/01/25 03:58:04;;;;;;;23.17;14.70;;;3.40;99.90;;;;;;4987486;28;20202;-73
2023/01/25 04:00:50;;;;;;;20.73;13.60;;;3.30;99.90;;;;;;4993151;28;20202;-74
2023/01/25 04:03:35;;;;;;;21.67;14.52;;;3.30;99.90;;;;;;4980822;28;20207;-73
2023/01/25 04:06:22;;;;;;;22.02;15.20;;;3.30;99.90;;;;;;4989731;28;20250;-74
2023/01/25 04:09:09;;;;;;;28.30;15.90;;;3.40;99.90;;;;;;4985850;28;20293;-74
2023/01/25 04:11:55;;;;;;;27.33;15.57;;;3.40;99.90;;;;;;4988522;28;20294;-74
2023/01/25 04:14:40;;;;;;;23.02;14.82;;;3.30;99.90;;;;;;4984899;28;20230;-74
2023/01/25 04:17:26;;;;;;;21.52;14.68;;;3.20;99.90;;;;;;4982288;28;20395;-74
2023/01/25 04:20:12;;;;;;;22.55;14.73;;;3.10;99.90;;;;;;4984387;28;20222;-73
2023/01/25 04:23:00;;;;;;;21.00;13.95;;;3.10;99.90;;;;;;4990696;28;20622;-74
2023/01/25 04:25:52;;;;;;;21.80;14.30;;;3.00;99.90;;;;;;4991245;28;20227;-73
2023/01/25 04:28:38;;;;;;;20.50;14.00;;;3.00;99.90;;;;;;4990635;28;20231;-75
2023/01/25 04:31:24;;;;;;;27.80;14.13;;;3.00;99.90;;;;;;4986969;28;20215;-73
2023/01/25 04:34:10;;;;;;;21.50;13.93;;;3.00;99.90;;;;;;4985959;28;20577;-74
2023/01/25 04:36:56;;;;;;;22.35;12.35;;;3.10;99.90;;;;;;4979914;28;20331;-73
2023/01/25 04:39:43;;;;;;;21.52;13.73;;;3.10;99.90;;;;;;4987297;28;20206;-74
2023/01/25 04:42:28;;;;;;;27.92;14.38;;;3.10;99.90;;;;;;4987095;28;20258;-74
2023/01/25 04:45:14;;;;;;;20.45;13.43;;;3.00;99.90;;;;;;4985051;28;20299;-74
2023/01/25 04:48:01;;;;;;;23.40;13.77;;;3.00;99.90;;;;;;4985168;28;20350;-74
2023/01/25 04:50:47;;;;;;;20.90;12.82;;;3.10;99.90;;;;;;4996751;28;20261;-72
2023/01/25 04:53:35;;;;;;;26.60;16.25;;;3.00;99.90;;;;;;4989084;28;20206;-73
2023/01/25 04:56:22;;;;;;;22.77;15.00;;;3.10;99.90;;;;;;4988406;28;20239;-73
2023/01/25 04:59:08;;;;;;;29.40;16.48;;;3.20;99.90;;;;;;4988298;28;20202;-72
2023/01/25 05:01:53;;;;;;;25.23;16.95;;;3.20;99.90;;;;;;4981205;28;20701;-73
2023/01/25 05:04:39;;;;;;;23.48;16.23;;;3.20;99.90;;;;;;4997795;28;20297;-73
2023/01/25 05:07:25;;;;;;;21.80;13.82;;;3.30;99.90;;;;;;4994840;28;20203;-73
2023/01/25 05:10:11;;;;;;;21.92;14.57;;;3.30;99.90;;;;;;4985791;28;20214;-73
2023/01/25 05:12:58;;;;;;;23.02;14.60;;;3.40;99.90;;;;;;4990889;28;20282;-73
2023/01/25 05:15:44;;;;;;;21.80;14.52;;;3.40;99.90;;;;;;4990399;28;20285;-75
2023/01/25 05:18:29;;;;;;;21.73;13.95;;;3.40;99.90;;;;;;4986350;28;20203;-73
2023/01/25 05:24:14;;;;;;;23.17;14.90;;;3.40;99.90;;;;;;4996256;28;20240;-75
2023/01/25 05:27:00;;;;;;;24.65;14.98;;;3.30;99.90;;;;;;4984985;28;20207;-73
2023/01/25 05:29:47;;;;;;;21.58;14.38;;;3.40;99.90;;;;;;4987587;28;20223;-73
2023/01/25 05:32:32;;;;;;;26.40;15.38;;;3.40;99.90;;;;;;4982469;28;20571;-74
2023/01/25 05:35:18;;;;;;;23.60;15.43;;;3.50;99.90;;;;;;4979911;28;20680;-73
2023/01/25 05:38:05;;;;;;;25.35;15.10;;;3.40;99.90;;;;;;4984421;28;20282;-73
2023/01/25 05:40:51;;;;;;;26.08;16.30;;;3.40;99.90;;;;;;4987529;28;20335;-75
2023/01/25 05:43:36;;;;;;;23.60;15.40;;;3.50;99.90;;;;;;4988702;28;20207;-74
2023/01/25 05:46:23;;;;;;;28.25;14.85;;;3.40;99.90;;;;;;4987977;28;20225;-74
2023/01/25 05:49:10;;;;;;;21.08;14.60;;;3.40;99.90;;;;;;4994289;28;20235;-73
2023/01/25 05:51:56;;;;;;;27.50;17.70;;;3.50;99.90;;;;;;4988718;28;20326;-74
2023/01/25 05:54:42;;;;;;;28.25;15.95;;;3.40;99.90;;;;;;4988552;28;20584;-74
2023/01/25 05:57:28;;;;;;;24.15;15.63;;;3.30;99.90;;;;;;4986306;28;20293;-74
2023/01/25 06:00:14;;;;;;;26.65;17.27;;;3.30;99.90;;;;;;4997514;28;20202;-73
2023/01/25 06:03:02;;;;;;;25.70;15.13;;;3.40;99.90;;;;;;4988679;28;20210;-73
2023/01/25 06:05:47;;;;;;;23.38;17.02;;;3.30;99.90;;;;;;5021052;22;20242;-73
2023/01/25 06:08:33;;;;;;;30.20;15.65;;;3.30;99.90;;;;;;5036306;28;20234;-74
2023/01/25 06:11:21;;;;;;;24.75;16.60;;;3.20;99.90;;;;;;5033869;28;20646;-73
2023/01/25 06:14:07;;;;;;;25.60;15.70;;;3.30;99.90;;;;;;5031621;28;20256;-73
2023/01/25 06:16:53;;;;;;;31.35;19.70;;;3.30;99.90;;;;;;5031438;28;20221;-73
2023/01/25 06:19:40;;;;;;;22.58;15.43;;;3.20;99.90;;;;;;5040997;28;20239;-74
2023/01/25 06:22:25;;;;;;;23.67;13.85;;;3.20;99.90;;;;;;5035172;28;20201;-74
2023/01/25 06:25:11;;;;;;;20.23;13.18;;;3.10;99.90;;;;;;5026200;28;20242;-74
2023/01/25 06:27:57;;;;;;;18.77;12.77;;;3.10;99.90;;;;;;5019659;28;20210;-75
2023/01/25 06:30:42;;;;;;;22.13;12.40;;;3.00;99.90;;;;;;5025557;28;20333;-74
2023/01/25 06:33:28;;;;;;;18.38;12.60;;;3.10;99.90;;;;;;5040290;28;20201;-74
2023/01/25 06:36:17;;;;;;;19.35;12.32;;;3.00;99.90;;;;;;5024023;28;20229;-74
2023/01/25 06:39:04;;;;;;;18.17;12.05;;;3.00;99.90;;;;;;5038805;28;20287;-75
2023/01/25 06:41:49;;;;;;;24.20;12.13;;;3.10;99.90;;;;;;5030992;28;20202;-75
2023/01/25 06:44:35;;;;;;;17.48;11.85;;;3.20;99.90;;;;;;5017345;28;20210;-73
2023/01/25 06:47:20;;;;;;;20.50;12.52;;;3.20;99.90;;;;;;5035140;28;20714;-74
2023/01/25 06:50:07;;;;;;;19.80;12.32;;;3.20;99.90;;;;;;5022602;28;20701;-73
2023/01/25 06:52:55;;;;;;;19.92;12.88;;;3.20;99.90;;;;;;5030366;28;20279;-74
2023/01/25 06:55:41;;;;;;;25.50;12.88;;;3.30;99.90;;;;;;5021311;28;20619;-74
2023/01/25 06:58:27;;;;;;;19.52;12.60;;;3.40;99.90;;;;;;5038656;28;20196;-74
2023/01/25 07:01:15;;;;;;;17.45;12.93;;;3.40;99.90;;;;;;5029950;28;20252;-75
2023/01/25 07:04:00;;;;;;;25.25;14.93;;;3.40;99.90;;;;;;5027459;28;20272;-76
2023/01/25 07:06:46;;;;;;;22.70;14.52;;;3.30;99.90;;;;;;5029179;28;20359;-74
2023/01/25 07:09:33;;;;;;;18.55;12.95;;;3.30;99.90;;;;;;5042221;28;20225;-74
2023/01/25 07:12:19;;;;;;;21.15;12.95;;;3.40;99.90;;;;;;5039506;28;20209;-74
2023/01/25 07:15:05;;;;;;;23.52;13.10;;;3.20;99.90;;;;;;5023553;28;20230;-76
2023/01/25 07:17:51;;;;;;;16.38;11.10;;;3.10;99.90;;;;;;5016382;28;20696;-71
2023/01/25 07:20:36;;;;;;;14.07;9.70;;;3.20;99.90;;;;;;5030667;28;20213;-72
2023/01/25 07:23:22;;;;;;;22.25;12.13;;;3.20;99.90;;;;;;5034400;28;20796;-73
2023/01/25 07:26:16;;;;;;;21.95;13.52;;;3.30;99.90;;;;;;5015251;28;20781;-74
2023/01/25 07:29:01;;;;;;;19.48;12.70;;;3.20;99.90;;;;;;5028576;28;20741;-75
2023/01/25 07:31:47;;;;;;;20.70;11.82;;;3.20;99.90;;;;;;5028702;28;20201;-74
2023/01/25 07:34:33;;;;;;;18.40;11.48;;;3.20;99.90;;;;;;5015945;28;20291;-75
2023/01/25 07:37:19;;;;;;;20.70;12.52;;;3.20;99.90;;;;;;5038753;28;20225;-74
2023/01/25 07:40:05;;;;;;;17.00;11.93;;;3.20;99.90;;;;;;5044150;28;20217;-72
2023/01/25 07:42:52;;;;;;;18.45;11.43;;;3.20;99.90;;;;;;5031021;28;20365;-74
2023/01/25 07:45:38;;;;;;;20.77;11.88;;;3.10;99.90;;;;;;5018112;28;20253;-74
2023/01/25 07:48:24;;;;;;;16.33;10.45;;;3.10;99.90;;;;;;5021414;28;20328;-75
2023/01/25 07:51:21;;;;;;;14.93;10.32;;;3.10;99.90;;;;;;5023289;28;20209;-75
2023/01/25 07:54:06;;;;;;;14.73;10.30;;;3.10;99.90;;;;;;5020710;28;20217;-76
2023/01/25 07:56:52;;;;;;;12.57;8.82;;;3.20;99.90;;;;;;5032724;28;20221;-73
2023/01/25 07:59:39;;;;;;;17.27;10.45;;;3.10;99.90;;;;;;5030964;28;20205;-73
2023/01/25 08:02:25;;;;;;;18.00;10.90;;;3.10;99.90;;;;;;5045598;28;20205;-74
2023/01/25 08:05:11;;;;;;;16.80;11.15;;;3.20;99.90;;;;;;5028488;28;20233;-74
2023/01/25 08:07:56;;;;;;;16.38;11.02;;;3.20;99.90;;;;;;5037090;28;20234;-74
2023/01/25 08:10:42;;;;;;;17.73;10.65;;;3.20;99.90;;;;;;5046382;28;20226;-74
2023/01/25 08:13:28;;;;;;;17.92;10.90;;;3.30;99.90;;;;;;5041070;28;20201;-75
2023/01/25 08:16:16;;;;;;;15.35;10.07;;;3.30;99.90;;;;;;5028042;28;20221;-74
2023/01/25 08:19:03;;;;;;;17.58;10.60;;;3.30;99.90;;;;;;5025666;28;20251;-75
2023/01/25 08:21:48;;;;;;;20.75;11.60;;;3.20;99.90;;;;;;5023410;28;20202;-74
2023/01/25 08:24:34;;;;;;;18.58;11.15;;;3.30;99.90;;;;;;5022009;28;20662;-72
2023/01/25 08:27:20;;;;;;;20.45;12.50;;;3.20;99.90;;;;;;5039458;28;20420;-73
2023/01/25 08:30:07;;;;;;;17.17;12.35;;;3.30;99.90;;;;;;5022480;28;20234;-73
2023/01/25 08:32:54;;;;;;;19.25;12.07;;;3.30;99.90;;;;;;5026804;28;20209;-74
2023/01/25 08:35:40;;;;;;;19.95;11.25;;;3.40;99.90;;;;;;5037985;28;20785;-74
2023/01/25 08:38:25;;;;;;;17.50;11.73;;;3.40;99.90;;;;;;5048544;28;20204;-74
2023/01/25 08:41:13;;;;;;;16.65;11.77;;;3.40;99.90;;;;;;5042332;28;20216;-74
2023/01/25 08:43:59;;;;;;;15.27;9.85;;;3.40;99.90;;;;;;5031449;28;20217;-74
2023/01/25 08:46:46;;;;;;;15.75;10.18;;;3.50;99.90;;;;;;5044882;28;20244;-74
2023/01/25 08:49:34;;;;;;;16.90;10.63;;;3.50;99.90;;;;;;5036703;28;20241;-74
2023/01/25 08:52:19;;;;;;;18.33;11.43;;;3.50;99.90;;;;;;5049883;28;20217;-74
2023/01/25 08:55:06;;;;;;;15.10;11.43;;;3.50;99.90;;;;;;5026926;28;20702;-74
2023/01/25 08:57:51;;;;;;;17.52;11.50;;;3.50;99.90;;;;;;5044358;28;20351;-74
2023/01/25 09:00:37;;;;;;;17.80;10.95;;;3.60;99.90;;;;;;5037717;28;20208;-74
2023/01/25 09:03:22;;;;;;;16.40;10.80;;;3.60;99.90;;;;;;5039694;28;20205;-74
2023/01/25 09:06:10;;;;;;;15.25;10.48;;;3.70;99.90;;;;;;5049219;28;20248;-74
2023/01/25 09:08:56;;;;;;;16.92;11.10;;;3.60;99.90;;;;;;5044989;28;20224;-73
2023/01/25 09:11:42;;;;;;;13.48;9.82;;;3.60;99.90;;;;;;5040994;28;20205;-74
2023/01/25 09:14:27;;;;;;;15.93;10.35;;;3.60;99.90;;;;;;5025119;28;20309;-73
2023/01/25 09:17:13;;;;;;;17.95;10.95;;;3.70;99.90;;;;;;5038813;28;20230;-74
2023/01/25 09:19:59;;;;;;;17.70;10.45;;;3.60;99.90;;;;;;5042272;28;20574;-73
2023/01/25 09:22:46;;;;;;;15.52;10.10;;;3.60;99.90;;;;;;5035281;28;20216;-74
2023/01/25 09:25:31;;;;;;;15.85;9.15;;;3.60;99.90;;;;;;5041550;28;20589;-73
2023/01/25 09:28:17;;;;;;;14.23;9.98;;;3.60;99.90;;;;;;5046305;28;20632;-74
2023/01/25 09:31:06;;;;;;;14.00;9.75;;;3.60;99.90;;;;;;5041432;28;20590;-74
2023/01/25 09:33:52;;;;;;;15.85;10.18;;;3.60;99.90;;;;;;5031982;28;20204;-73
2023/01/25 09:36:38;;;;;;;17.17;10.30;;;3.60;99.90;;;;;;5054046;28;20299;-74
2023/01/25 09:39:25;;;;;;;14.85;10.23;;;3.60;99.90;;;;;;5050088;28;20201;-74
2023/01/25 09:42:42;;;;;;;14.77;9.77;;;3.60;99.90;;;;;;5042467;28;20219;-75
2023/01/25 09:45:32;;;;;;;16.90;11.35;;;3.70;99.90;;;;;;5045153;28;20222;-74
2023/01/25 09:48:26;;;;;;;14.40;10.05;;;3.70;99.90;;;;;;5048111;28;20303;-74
2023/01/25 09:51:22;;;;;;;18.10;10.88;;;3.70;99.90;;;;;;5047796;28;20355;-73
2023/01/25 09:54:09;;;;;;;15.07;11.27;;;3.80;99.90;;;;;;5038962;28;20344;-74
2023/01/25 09:56:58;;;;;;;15.02;10.65;;;3.70;99.90;;;;;;5045212;28;20622;-74
2023/01/25 09:59:45;;;;;;;13.95;11.13;;;3.60;99.90;;;;;;5050666;28;20220;-74
2023/01/25 10:02:40;;;;;;;19.10;11.18;;;3.60;99.90;;;;;;5031661;28;20206;-73
2023/01/25 10:05:29;;;;;;;12.25;8.95;;;3.50;99.90;;;;;;5047982;28;20252;-74
2023/01/25 10:08:25;;;;;;;19.38;10.68;;;3.50;99.90;;;;;;5052361;28;20212;-75
2023/01/25 10:11:16;;;;;;;16.23;10.25;;;3.50;99.90;;;;;;5038392;28;20221;-73
2023/01/25 10:14:13;;;;;;;15.00;10.20;;;3.50;99.90;;;;;;5031588;28;20698;-75
2023/01/25 10:17:07;;;;;;;16.67;9.98;;;3.60;99.90;;;;;;5047290;28;20225;-74
2023/01/25 10:20:09;;;;;;;13.48;9.75;;;3.60;99.90;;;;;;5044732;28;20197;-74
2023/01/25 10:23:25;;;;;;;13.95;9.32;;;3.60;99.90;;;;;;5021766;28;20221;-75
2023/01/25 10:26:21;;;;;;;12.07;9.15;;;3.60;99.90;;;;;;5044208;28;20229;-73
2023/01/25 10:29:14;;;;;;;16.63;10.15;;;3.70;99.90;;;;;;5039922;28;20574;-73
2023/01/25 10:32:10;;;;;;;19.83;12.77;;;3.70;99.90;;;;;;5041865;28;20202;-74
2023/01/25 10:35:00;;;;;;;16.83;11.85;;;3.80;99.90;;;;;;5038280;28;20329;-74
2023/01/25 10:37:46;;;;;;;17.95;12.57;;;3.70;99.90;;;;;;5046607;28;20229;-74
2023/01/25 10:40:40;;;;;;;22.67;13.38;;;3.70;99.90;;;;;;5027626;28;20205;-75
2023/01/25 10:43:26;;;;;;;18.25;11.70;;;3.70;99.90;;;;;;5038769;28;20340;-73
2023/01/25 10:46:21;;;;;;;20.55;12.13;;;3.60;99.90;;;;;;5045771;28;20228;-73
2023/01/25 10:49:21;;;;;;;20.10;10.25;;;3.60;99.90;;;;;;5046858;28;20691;-74
2023/01/25 10:52:17;;;;;;;17.17;11.25;;;3.60;99.90;;;;;;5040590;28;20209;-73
2023/01/25 10:55:15;;;;;;;20.67;10.82;;;3.60;99.90;;;;;;5043298;28;20236;-73
2023/01/25 10:58:01;;;;;;;14.02;9.32;;;3.70;99.90;;;;;;5045914;28;20200;-73
2023/01/25 11:00:51;;;;;;;14.52;9.55;;;3.60;99.90;;;;;;5044831;28;20204;-73
2023/01/25 11:03:40;;;;;;;18.20;11.48;;;3.60;99.90;;;;;;5038155;28;20694;-73
2023/01/25 11:06:33;;;;;;;15.23;11.00;;;3.50;99.90;;;;;;5051680;28;20245;-73
2023/01/25 11:09:37;;;;;;;15.88;10.38;;;3.50;99.90;;;;;;5047762;28;20300;-74
2023/01/25 11:12:22;;;;;;;16.80;12.43;;;3.50;99.90;;;;;;5032786;28;20348;-74
2023/01/25 11:15:25;;;;;;;19.63;11.52;;;3.60;99.90;;;;;;5047889;28;20267;-73
2023/01/25 11:18:14;;;;;;;17.33;10.75;;;3.60;99.90;;;;;;5050213;28;20283;-73
2023/01/25 11:21:06;;;;;;;18.20;10.88;;;3.60;99.90;;;;;;5043279;28;20256;-75
2023/01/25 11:24:04;;;;;;;16.08;10.93;;;3.50;99.90;;;;;;5025766;28;20213;-74
2023/01/25 11:26:50;;;;;;;18.70;12.02;;;3.50;99.90;;;;;;5024586;28;20315;-72
2023/01/25 11:29:36;;;;;;;18.77;11.65;;;3.50;99.90;;;;;;5019085;28;20345;-72
2023/01/25 11:32:23;;;;;;;17.10;10.98;;;3.60;99.90;;;;;;5024238;28;20221;-73
2023/01/25 11:35:14;;;;;;;21.38;12.48;;;3.60;99.90;;;;;;5030778;28;20775;-71
2023/01/25 11:38:11;;;;;;;17.88;11.05;;;3.60;99.90;;;;;;5013976;28;20317;-73
2023/01/25 11:41:06;;;;;;;19.17;11.73;;;3.70;99.90;;;;;;5036569;28;20206;-73
2023/01/25 11:44:11;;;;;;;20.20;12.05;;;3.80;99.90;;;;;;5045801;28;20294;-73
2023/01/25 11:47:09;;;;;;;22.35;14.80;;;3.80;99.90;;;;;;5025314;28;20357;-73
2023/01/25 11:50:06;;;;;;;18.05;12.48;;;3.80;99.90;;;;;;5018949;28;20366;-72
2023/01/25 11:53:03;;;;;;;20.27;12.70;;;3.90;99.90;;;;;;5017306;28;20207;-73
2023/01/25 11:55:57;;;;;;;18.75;12.02;;;3.80;99.90;;;;;;5028863;28;20221;-73
2023/01/25 11:59:00;;;;;;;20.45;13.68;;;3.70;99.90;;;;;;5022067;28;20261;-72
2023/01/25 12:02:07;;;;;;;21.70;13.60;;;3.80;99.90;;;;;;5024995;28;20631;-73
2023/01/25 12:05:11;;;;;;;17.52;12.10;;;3.80;99.90;;;;;;5019070;28;20264;-73
2023/01/25 12:08:09;;;;;;;22.52;12.70;;;3.90;99.90;;;;;;5028390;28;20210;-73
2023/01/25 12:11:04;;;;;;;20.77;12.15;;;3.90;99.90;;;;;;5027188;28;20750;-73
2023/01/25 12:14:01;;;;;;;19.00;11.90;;;3.90;99.90;;;;;;5017450;28;20261;-71
2023/01/25 12:17:04;;;;;;;19.08;11.73;;;3.90;99.90;;;;;;5022546;28;20295;-72
2023/01/25 12:20:05;;;;;;;18.77;12.70;;;3.90;99.90;;;;;;5026994;28;20221;-72
2023/01/25 12:23:15;;;;;;;22.33;13.20;;;3.90;99.90;;;;;;5022096;28;20262;-73
2023/01/25 12:26:19;;;;;;;19.25;12.98;;;4.00;99.90;;;;;;5037772;28;20585;-72
2023/01/25 12:29:21;;;;;;;17.60;12.35;;;4.10;99.90;;;;;;5044352;28;20289;-72
2023/01/25 12:32:11;;;;;;;17.00;11.18;;;4.00;99.90;;;;;;5030569;28;20336;-73
2023/01/25 12:35:10;;;;;;;17.20;10.70;;;4.10;99.90;;;;;;5038409;28;20213;-72
2023/01/25 12:38:00;;;;;;;16.77;9.98;;;3.90;99.90;;;;;;5040710;28;20337;-72
2023/01/25 12:40:51;;;;;;;19.40;11.10;;;3.90;99.90;;;;;;5025732;28;20281;-73
2023/01/25 12:43:43;;;;;;;19.77;11.85;;;3.90;99.90;;;;;;5046302;28;20240;-72
2023/01/25 12:46:37;;;;;;;15.57;10.60;;;4.00;99.90;;;;;;5025214;28;20228;-73
2023/01/25 12:49:29;;;;;;;21.95;12.45;;;3.90;99.90;;;;;;5027878;28;20212;-73
2023/01/25 12:52:22;;;;;;;16.23;10.52;;;3.90;99.90;;;;;;5032029;28;20201;-73
2023/01/25 12:55:13;;;;;;;18.88;11.90;;;3.90;99.90;;;;;;5023044;28;20226;-72
2023/01/25 12:58:04;;;;;;;16.88;11.70;;;4.00;99.90;;;;;;5044318;28;20205;-72
2023/01/25 13:00:57;;;;;;;18.50;12.57;;;4.00;99.90;;;;;;5031371;28;20249;-73
2023/01/25 13:04:03;;;;;;;18.33;11.85;;;4.10;99.90;;;;;;5047164;28;20211;-72
2023/01/25 13:06:55;;;;;;;17.88;12.10;;;4.00;99.90;;;;;;5042866;28;20236;-72
2023/01/25 13:09:51;;;;;;;18.35;11.15;;;4.00;99.90;;;;;;5041832;28;20212;-72
2023/01/25 13:12:55;;;;;;;22.30;12.32;;;4.10;99.90;;;;;;5033026;28;20208;-73
2023/01/25 13:15:42;;;;;;;18.50;11.50;;;4.10;99.90;;;;;;5039233;28;20312;-72
2023/01/25 13:18:40;;;;;;;18.27;11.93;;;4.10;99.90;;;;;;5046625;28;20201;-72
2023/01/25 13:21:43;;;;;;;18.30;11.02;;;4.20;99.90;;;;;;5034458;28;20232;-73
2023/01/25 13:24:30;;;;;;;17.48;10.80;;;4.00;99.90;;;;;;5045210;28;20275;-73
2023/01/25 13:27:26;;;;;;;21.90;11.90;;;4.00;99.90;;;;;;5049420;28;20706;-72
2023/01/25 13:30:30;;;;;;;15.55;10.13;;;4.00;99.90;;;;;;5036486;28;20283;-72
2023/01/25 13:33:32;;;;;;;19.65;11.43;;;3.90;99.90;;;;;;5050319;28;20204;-72
2023/01/25 13:36:46;;;;;;;16.48;11.60;;;3.90;99.90;;;;;;5038039;28;20223;-72
2023/01/25 13:39:43;;;;;;;17.92;11.15;;;3.90;99.90;;;;;;5040947;28;20679;-73
2023/01/25 13:42:30;;;;;;;19.05;12.95;;;3.90;99.90;;;;;;5045915;28;20201;-73
2023/01/25 13:45:20;;;;;;;17.05;10.63;;;4.00;99.90;;;;;;5049233;28;20229;-73
2023/01/25 13:48:13;;;;;;;15.95;10.18;;;4.00;99.90;;;;;;5050547;28;20681;-72
2023/01/25 13:51:03;;;;;;;16.80;10.57;;;4.00;99.90;;;;;;5030318;28;20292;-71
2023/01/25 13:53:58;;;;;;;21.10;12.63;;;4.00;99.90;;;;;;5020419;28;20581;-72
2023/01/25 13:56:43;;;;;;;16.10;10.70;;;4.00;99.90;;;;;;5046235;28;20275;-73
2023/01/25 13:59:29;;;;;;;18.38;11.70;;;4.10;99.90;;;;;;5032922;28;20343;-73
2023/01/25 14:02:19;;;;;;;16.73;11.02;;;4.10;99.90;;;;;;5042912;28;20717;-73
2023/01/25 14:05:06;;;;;;;18.80;10.88;;;4.00;99.90;;;;;;5044871;28;20232;-73
2023/01/25 14:07:55;;;;;;;17.85;10.65;;;4.00;99.90;;;;;;5046640;28;20733;-72
2023/01/25 14:10:44;;;;;;;17.15;11.70;;;4.00;99.90;;;;;;5033855;28;20217;-72
2023/01/25 14:13:29;;;;;;;19.27;11.38;;;4.10;99.90;;;;;;5043498;28;20272;-73
2023/01/25 14:16:18;;;;;;;21.60;13.20;;;4.10;99.90;;;;;;5051976;28;20224;-73
2023/01/25 14:19:22;;;;;;;17.38;11.27;;;4.10;99.90;;;;;;5039680;28;20202;-72
2023/01/25 14:22:21;;;;;;;18.15;11.38;;;4.10;99.90;;;;;;5043418;28;20196;-73
2023/01/25 14:25:12;;;;;;;16.50;11.15;;;4.00;99.90;;;;;;5040750;28;20230;-72
2023/01/25 14:28:00;;;;;;;27.73;14.52;;;4.10;99.90;;;;;;5037061;28;20344;-73
2023/01/25 14:30:51;;;;;;;33.95;17.25;;;4.10;99.90;;;;;;5033500;28;20355;-72
2023/01/25 14:33:43;;;;;;;22.88;12.20;;;4.00;99.90;;;;;;5040379;28;20209;-72
2023/01/25 14:36:30;;;;;;;18.58;11.90;;;4.10;99.90;;;;;;5051656;28;20221;-72